createdAt,value
2023-02-11T00:01:01.253Z,18.67
2023-02-11T00:03:29.464Z,18.83
2023-02-11T00:06:00.305Z,18.90
2023-02-11T00:08:28.142Z,19.07
2023-02-11T00:10:56.367Z,18.23
2023-02-11T00:13:24.399Z,20.07
2023-02-11T00:15:52.735Z,21.73
2023-02-11T00:18:21.058Z,19.23
2023-02-11T00:20:49.073Z,19.63
2023-02-11T00:23:17.195Z,18.07
2023-02-11T00:25:45.119Z,20.47
2023-02-11T00:28:13.085Z,19.93
2023-02-11T00:30:41.033Z,22.37
2023-02-11T00:33:09.286Z,21.70
2023-02-11T00:35:38.743Z,20.93
2023-02-11T00:38:06.946Z,19.67
2023-02-11T00:40:35.090Z,18.40
2023-02-11T00:43:03.406Z,18.70
2023-02-11T00:45:31.582Z,17.70
2023-02-11T00:47:59.150Z,19.30
2023-02-11T00:50:27.019Z,19.33
2023-02-11T00:52:55.170Z,19.03
2023-02-11T00:55:23.546Z,20.10
2023-02-11T00:57:51.229Z,19.70
2023-02-11T01:00:20.126Z,19.63
2023-02-11T01:03:06.116Z,17.90
2023-02-11T01:06:10.573Z,19.30
2023-02-11T01:08:38.793Z,18.10
2023-02-11T01:11:13.020Z,19.30
2023-02-11T01:13:40.580Z,17.37
2023-02-11T01:16:08.496Z,20.50
2023-02-11T01:18:55.161Z,22.43
2023-02-11T01:21:23.300Z,20.17
2023-02-11T01:23:51.562Z,19.20
2023-02-11T01:26:19.678Z,19.10
2023-02-11T01:28:47.805Z,18.07
2023-02-11T01:31:15.237Z,19.13
2023-02-11T01:33:42.933Z,19.33
2023-02-11T01:36:12.092Z,20.17
2023-02-11T01:38:41.140Z,19.80
2023-02-11T01:41:10.351Z,19.30
2023-02-11T01:43:40.137Z,19.83
2023-02-11T01:46:31.692Z,19.40
2023-02-11T01:49:11.917Z,19.47
2023-02-11T01:51:45.084Z,20.53
2023-02-11T01:54:32.144Z,20.47
2023-02-11T01:57:17.731Z,14.88
2023-02-11T02:00:08.242Z,18.10
2023-02-11T02:02:43.842Z,19.47
2023-02-11T02:05:40.908Z,19.63
2023-02-11T02:08:22.249Z,18.53
2023-02-11T02:10:53.305Z,17.77
2023-02-11T02:13:21.865Z,21.13
2023-02-11T02:16:15.171Z,19.73
2023-02-11T02:19:00.678Z,20.00
2023-02-11T02:22:20.570Z,20.27
2023-02-11T02:25:13.899Z,18.47
2023-02-11T02:27:50.167Z,18.03
2023-02-11T02:30:23.619Z,19.30
2023-02-11T02:32:50.231Z,19.97
2023-02-11T02:35:37.874Z,19.43
2023-02-11T02:38:31.152Z,20.33
2023-02-11T02:41:19.560Z,18.67
2023-02-11T02:43:49.936Z,18.43
2023-02-11T02:46:24.194Z,18.60
2023-02-11T02:48:52.839Z,20.83
2023-02-11T02:51:25.725Z,19.83
2023-02-11T02:54:14.159Z,17.43
2023-02-11T02:57:08.846Z,16.90
2023-02-11T02:59:45.403Z,19.00
2023-02-11T03:02:32.372Z,18.52
2023-02-11T03:05:24.654Z,18.52
2023-02-11T03:07:58.853Z,18.70
2023-02-11T03:10:53.703Z,20.03
2023-02-11T03:13:24.777Z,19.80
2023-02-11T03:15:53.360Z,18.53
2023-02-11T03:18:22.955Z,19.80
2023-02-11T03:20:53.400Z,20.30
2023-02-11T03:23:39.158Z,20.00
2023-02-11T03:26:22.306Z,18.77
2023-02-11T03:29:03.411Z,19.03
2023-02-11T03:32:08.062Z,20.10
2023-02-11T03:34:57.990Z,18.83
2023-02-11T03:37:33.112Z,19.33
2023-02-11T03:40:04.509Z,19.23
2023-02-11T03:42:59.035Z,18.77
2023-02-11T03:45:26.768Z,18.27
2023-02-11T03:48:01.877Z,19.13
2023-02-11T03:50:29.057Z,18.67
2023-02-11T03:52:56.964Z,18.13
2023-02-11T03:55:26.021Z,20.13
2023-02-11T03:57:53.847Z,18.90
2023-02-11T04:00:21.020Z,19.40
2023-02-11T04:02:48.598Z,18.80
2023-02-11T04:05:16.684Z,17.93
2023-02-11T04:07:44.954Z,18.67
2023-02-11T04:10:12.828Z,17.67
2023-02-11T04:12:40.947Z,18.23
2023-02-11T04:15:10.782Z,17.57
2023-02-11T04:17:38.520Z,17.53
2023-02-11T04:20:07.832Z,16.47
2023-02-11T04:22:35.892Z,18.97
2023-02-11T04:25:04.163Z,18.97
2023-02-11T04:27:32.170Z,18.27
2023-02-11T04:30:00.380Z,16.87
2023-02-11T04:32:27.958Z,17.97
2023-02-11T04:34:55.722Z,17.83
2023-02-11T04:37:23.780Z,18.77
2023-02-11T04:39:54.512Z,17.27
2023-02-11T04:42:22.388Z,19.00
2023-02-11T04:44:50.094Z,18.17
2023-02-11T04:47:17.705Z,18.50
2023-02-11T04:49:45.430Z,17.73
2023-02-11T04:52:12.610Z,17.77
2023-02-11T04:54:40.745Z,17.47
2023-02-11T04:57:08.823Z,18.33
2023-02-11T04:59:36.897Z,17.07
2023-02-11T05:02:04.518Z,18.00
2023-02-11T05:04:32.540Z,18.47
2023-02-11T05:07:00.797Z,18.63
2023-02-11T05:09:28.997Z,17.43
2023-02-11T05:11:56.610Z,16.77
2023-02-11T05:14:24.608Z,18.33
2023-02-11T05:16:53.390Z,17.00
2023-02-11T05:19:20.919Z,18.80
2023-02-11T05:22:01.813Z,18.37
2023-02-11T05:24:33.965Z,17.93
2023-02-11T05:27:02.486Z,17.80
2023-02-11T05:29:30.703Z,19.17
2023-02-11T05:31:59.998Z,19.37
2023-02-11T05:34:28.108Z,18.27
2023-02-11T05:36:56.168Z,19.60
2023-02-11T05:39:24.194Z,17.93
2023-02-11T05:41:52.656Z,18.23
2023-02-11T05:44:20.625Z,19.13
2023-02-11T05:46:49.263Z,18.83
2023-02-11T05:49:18.151Z,19.17
2023-02-11T05:51:45.605Z,19.87
2023-02-11T05:54:13.445Z,18.07
2023-02-11T05:56:43.795Z,18.07
2023-02-11T05:59:13.716Z,17.53
2023-02-11T06:01:41.430Z,18.70
2023-02-11T06:04:09.108Z,18.80
2023-02-11T06:06:36.746Z,18.07
2023-02-11T06:09:05.120Z,19.30
2023-02-11T06:11:32.840Z,19.80
2023-02-11T06:14:01.564Z,18.50
2023-02-11T06:16:30.030Z,19.70
2023-02-11T06:18:57.915Z,19.50
2023-02-11T06:21:36.341Z,19.43
2023-02-11T06:24:10.724Z,18.13
2023-02-11T06:26:39.376Z,16.73
2023-02-11T06:29:07.043Z,19.13
2023-02-11T06:31:34.970Z,20.20
2023-02-11T06:34:05.415Z,20.47
2023-02-11T06:36:33.444Z,20.40
2023-02-11T06:39:01.622Z,19.50
2023-02-11T06:41:29.382Z,20.60
2023-02-11T06:43:57.932Z,19.83
2023-02-11T06:46:26.634Z,19.33
2023-02-11T06:48:54.800Z,20.70
2023-02-11T06:51:22.369Z,20.50
2023-02-11T06:53:50.369Z,19.10
2023-02-11T06:56:19.479Z,20.27
2023-02-11T06:58:47.438Z,20.90
2023-02-11T07:01:16.190Z,20.90
2023-02-11T07:03:45.494Z,18.97
2023-02-11T07:06:15.452Z,19.37
2023-02-11T07:08:43.501Z,18.47
2023-02-11T07:11:12.552Z,19.20
2023-02-11T07:13:40.615Z,20.57
2023-02-11T07:16:09.937Z,20.10
2023-02-11T07:18:39.914Z,20.03
2023-02-11T07:21:09.557Z,20.60
2023-02-11T07:23:37.752Z,18.87
2023-02-11T07:26:09.428Z,18.50
2023-02-11T07:28:37.403Z,16.67
2023-02-11T07:31:15.117Z,19.57
2023-02-11T07:33:42.383Z,18.93
2023-02-11T07:36:10.533Z,19.50
2023-02-11T07:38:38.240Z,19.90
2023-02-11T07:41:29.184Z,20.87
2023-02-11T07:43:56.787Z,19.50
2023-02-11T07:46:26.197Z,21.87
2023-02-11T07:48:53.134Z,21.17
2023-02-11T07:51:23.084Z,21.20
2023-02-11T07:53:52.025Z,21.20
2023-02-11T07:56:20.010Z,21.73
2023-02-11T07:58:48.140Z,22.37
2023-02-11T08:01:22.480Z,22.03
2023-02-11T08:03:50.711Z,22.07
2023-02-11T08:06:20.377Z,20.83
2023-02-11T08:08:47.580Z,20.90
2023-02-11T08:11:15.086Z,20.33
2023-02-11T08:13:41.922Z,20.40
2023-02-11T08:16:10.065Z,20.90
2023-02-11T08:18:38.158Z,24.77
2023-02-11T08:21:08.878Z,22.50
2023-02-11T08:23:39.999Z,24.57
2023-02-11T08:26:16.855Z,21.50
2023-02-11T08:28:45.645Z,20.85
2023-02-11T08:31:34.319Z,22.37
2023-02-11T08:34:02.496Z,22.70
2023-02-11T08:36:55.305Z,21.70
2023-02-11T08:39:22.809Z,21.00
2023-02-11T08:41:53.476Z,21.67
2023-02-11T08:44:21.427Z,21.97
2023-02-11T08:46:49.506Z,21.70
2023-02-11T08:49:17.033Z,20.50
2023-02-11T08:51:44.916Z,19.33
2023-02-11T08:54:12.918Z,20.27
2023-02-11T08:56:40.124Z,22.40
2023-02-11T08:59:09.463Z,20.43
2023-02-11T09:01:37.593Z,21.17
2023-02-11T09:04:05.671Z,20.43
2023-02-11T09:06:34.029Z,19.53
2023-02-11T09:09:01.714Z,19.87
2023-02-11T09:11:30.942Z,20.03
2023-02-11T09:13:59.485Z,20.93
2023-02-11T09:16:29.314Z,22.13
2023-02-11T09:19:01.332Z,21.77
2023-02-11T09:21:28.313Z,19.83
2023-02-11T09:23:55.511Z,20.23
2023-02-11T09:26:24.655Z,20.00
2023-02-11T09:28:52.514Z,22.30
2023-02-11T09:31:22.815Z,22.27
2023-02-11T09:33:51.968Z,23.10
2023-02-11T09:36:24.741Z,22.07
2023-02-11T09:38:52.020Z,21.33
2023-02-11T09:41:25.053Z,20.03
2023-02-11T09:43:56.854Z,19.63
2023-02-11T09:46:24.331Z,23.23
2023-02-11T09:48:52.954Z,21.97
2023-02-11T09:51:23.908Z,21.23
2023-02-11T09:53:52.011Z,23.00
2023-02-11T09:56:20.310Z,22.67
2023-02-11T09:58:48.356Z,24.03
2023-02-11T10:01:56.603Z,24.50
2023-02-11T10:04:55.994Z,24.52
2023-02-11T10:07:38.532Z,25.80
2023-02-11T10:10:08.622Z,25.03
2023-02-11T10:12:41.643Z,26.07
2023-02-11T10:15:44.171Z,26.70
2023-02-11T10:18:47.541Z,26.63
2023-02-11T10:21:47.938Z,24.50
2023-02-11T10:24:15.385Z,25.93
2023-02-11T10:26:48.199Z,27.03
2023-02-11T10:29:54.534Z,27.73
2023-02-11T10:32:28.822Z,26.80
2023-02-11T10:34:57.119Z,25.07
2023-02-11T10:37:25.425Z,26.07
2023-02-11T10:39:53.199Z,25.93
2023-02-11T10:42:20.789Z,24.83
2023-02-11T10:44:58.481Z,24.47
2023-02-11T10:47:31.447Z,25.30
2023-02-11T10:50:03.626Z,24.20
2023-02-11T10:52:30.800Z,22.17
2023-02-11T10:55:23.300Z,24.00
2023-02-11T10:58:01.422Z,22.17
2023-02-11T11:00:36.221Z,21.50
2023-02-11T11:03:05.438Z,21.00
2023-02-11T11:05:35.396Z,20.13
2023-02-11T11:08:04.886Z,19.80
2023-02-11T11:10:43.732Z,19.27
2023-02-11T11:13:30.978Z,20.07
2023-02-11T11:16:13.403Z,19.92
2023-02-11T11:18:42.025Z,19.77
2023-02-11T11:21:23.834Z,19.20
2023-02-11T11:24:22.899Z,19.43
2023-02-11T11:26:52.029Z,17.23
2023-02-11T11:29:23.598Z,18.10
2023-02-11T11:32:01.404Z,18.27
2023-02-11T11:34:38.769Z,18.70
2023-02-11T11:37:41.383Z,18.40
2023-02-11T11:40:49.433Z,16.70
2023-02-11T11:43:23.127Z,17.33
2023-02-11T11:45:58.537Z,17.77
2023-02-11T11:48:32.038Z,15.60
2023-02-11T11:51:00.854Z,17.17
2023-02-11T11:53:34.418Z,16.07
2023-02-11T11:56:13.316Z,16.67
2023-02-11T11:58:41.889Z,15.47
2023-02-11T12:01:36.735Z,14.93
2023-02-11T12:04:31.843Z,14.60
2023-02-11T12:07:27.726Z,14.37
2023-02-11T12:10:30.726Z,14.23
2023-02-11T12:13:00.780Z,14.00
2023-02-11T12:15:49.314Z,14.50
2023-02-11T12:18:38.765Z,15.73
2023-02-11T12:21:22.878Z,15.67
2023-02-11T12:23:55.635Z,15.93
2023-02-11T12:26:48.445Z,17.23
2023-02-11T12:29:27.665Z,15.77
2023-02-11T12:32:00.683Z,15.60
2023-02-11T12:34:57.368Z,16.77
2023-02-11T12:38:12.398Z,15.27
2023-02-11T12:41:03.217Z,15.60
2023-02-11T12:43:42.697Z,15.50
2023-02-11T12:46:21.090Z,15.80
2023-02-11T12:49:18.876Z,15.87
2023-02-11T12:54:32.933Z,18.20
2023-02-11T12:57:07.460Z,15.63
2023-02-11T12:59:34.283Z,14.90
2023-02-11T13:02:04.752Z,14.17
2023-02-11T13:04:53.204Z,13.30
2023-02-11T13:07:31.678Z,13.70
2023-02-11T13:10:02.349Z,13.57
2023-02-11T13:12:49.181Z,14.37
2023-02-11T13:15:16.204Z,13.40
2023-02-11T13:18:20.060Z,13.97
2023-02-11T13:20:46.730Z,13.67
2023-02-11T13:23:43.427Z,12.83
2023-02-11T13:26:13.586Z,12.07
2023-02-11T13:28:55.164Z,12.20
2023-02-11T13:31:27.053Z,12.57
2023-02-11T13:33:55.187Z,12.80
2023-02-11T13:36:28.680Z,12.97
2023-02-11T13:39:28.045Z,13.00
2023-02-11T13:42:04.043Z,12.80
2023-02-11T13:44:32.856Z,13.90
2023-02-11T13:47:05.821Z,13.37
2023-02-11T13:49:38.047Z,13.63
2023-02-11T13:52:06.037Z,13.73
2023-02-11T13:54:38.096Z,14.67
2023-02-11T13:57:20.492Z,14.10
2023-02-11T14:00:21.773Z,13.60
2023-02-11T14:03:18.138Z,14.50
2023-02-11T14:06:27.718Z,13.57
2023-02-11T14:09:09.840Z,12.83
2023-02-11T14:11:48.406Z,14.67
2023-02-11T14:14:24.697Z,13.70
2023-02-11T14:17:00.654Z,13.38
2023-02-11T14:19:38.477Z,14.23
2023-02-11T14:22:08.556Z,13.70
2023-02-11T14:24:35.318Z,14.50
2023-02-11T14:27:12.369Z,14.70
2023-02-11T14:32:27.406Z,14.07
2023-02-11T14:35:01.652Z,15.10
2023-02-11T14:37:50.971Z,15.53
2023-02-11T14:40:28.827Z,16.23
2023-02-11T14:42:56.577Z,17.00
2023-02-11T14:45:28.136Z,15.30
2023-02-11T14:48:08.797Z,16.10
2023-02-11T14:51:34.094Z,15.77
2023-02-11T14:54:11.410Z,15.50
2023-02-11T14:56:43.603Z,15.93
2023-02-11T14:59:21.801Z,17.10
2023-02-11T15:01:54.705Z,16.93
2023-02-11T15:04:27.321Z,17.43
2023-02-11T15:06:55.559Z,16.33
2023-02-11T15:09:53.799Z,16.33
2023-02-11T15:14:53.695Z,15.53
2023-02-11T15:17:22.872Z,16.00
2023-02-11T15:19:53.376Z,15.93
2023-02-11T15:22:23.306Z,16.70
2023-02-11T15:25:10.898Z,17.17
2023-02-11T15:27:59.713Z,15.57
2023-02-11T15:30:34.510Z,15.53
2023-02-11T15:33:06.518Z,15.30
2023-02-11T15:35:40.143Z,14.30
2023-02-11T15:38:08.136Z,15.77
2023-02-11T15:40:37.178Z,15.87
2023-02-11T15:43:05.008Z,14.57
2023-02-11T15:45:53.826Z,14.37
2023-02-11T15:48:35.162Z,13.87
2023-02-11T15:51:13.507Z,14.60
2023-02-11T15:53:43.510Z,14.37
2023-02-11T15:56:15.955Z,14.87
2023-02-11T15:58:45.773Z,15.63
2023-02-11T16:01:12.928Z,14.60
2023-02-11T16:03:40.698Z,14.67
2023-02-11T16:06:47.557Z,15.87
2023-02-11T16:09:14.541Z,15.60
2023-02-11T16:11:47.387Z,15.60
2023-02-11T16:14:23.291Z,15.00
2023-02-11T16:16:51.312Z,15.37
2023-02-11T16:19:25.658Z,17.97
2023-02-11T16:21:53.912Z,18.83
2023-02-11T16:24:40.779Z,17.80
2023-02-11T16:27:29.819Z,16.13
2023-02-11T16:29:57.825Z,16.60
2023-02-11T16:32:29.696Z,16.60
2023-02-11T16:35:00.004Z,17.13
2023-02-11T16:37:27.894Z,16.43
2023-02-11T16:39:56.631Z,16.63
2023-02-11T16:42:24.708Z,15.77
2023-02-11T16:44:52.840Z,16.50
2023-02-11T16:47:49.062Z,17.83
2023-02-11T16:50:21.318Z,18.77
2023-02-11T16:52:48.469Z,17.30
2023-02-11T16:55:19.123Z,16.07
2023-02-11T16:57:47.210Z,17.00
2023-02-11T17:00:19.306Z,17.37
2023-02-11T17:02:47.288Z,18.23
2023-02-11T17:05:20.140Z,19.60
2023-02-11T17:07:48.289Z,17.07
2023-02-11T17:10:18.239Z,19.87
2023-02-11T17:12:46.323Z,23.80
2023-02-11T17:15:14.509Z,21.27
2023-02-11T17:17:42.600Z,18.37
2023-02-11T17:20:32.151Z,17.03
2023-02-11T17:23:00.112Z,16.87
2023-02-11T17:25:27.893Z,16.83
2023-02-11T17:27:56.337Z,17.30
2023-02-11T17:30:25.191Z,17.30
2023-02-11T17:32:53.990Z,17.93
2023-02-11T17:35:22.041Z,19.53
2023-02-11T17:37:49.802Z,21.13
2023-02-11T17:40:18.574Z,19.33
2023-02-11T17:42:47.011Z,16.40
2023-02-11T17:45:15.379Z,17.30
2023-02-11T17:47:43.356Z,16.73
2023-02-11T17:50:12.176Z,16.30
2023-02-11T17:52:40.024Z,17.30
2023-02-11T17:55:12.081Z,17.23
2023-02-11T17:57:39.478Z,16.93
2023-02-11T18:00:07.824Z,18.13
2023-02-11T18:02:35.688Z,17.97
2023-02-11T18:05:04.427Z,18.60
2023-02-11T18:07:32.179Z,18.13
2023-02-11T18:10:00.237Z,17.77
2023-02-11T18:12:28.291Z,19.20
2023-02-11T18:14:57.984Z,18.13
2023-02-11T18:17:25.456Z,17.23
2023-02-11T18:19:56.294Z,18.33
2023-02-11T18:22:24.580Z,17.83
2023-02-11T18:24:55.166Z,18.33
2023-02-11T18:27:22.984Z,18.03
2023-02-11T18:29:50.832Z,18.80
2023-02-11T18:32:18.979Z,18.20
2023-02-11T18:34:46.554Z,20.30
2023-02-11T18:37:14.420Z,18.67
2023-02-11T18:39:42.398Z,18.23
2023-02-11T18:42:10.314Z,19.77
2023-02-11T18:44:38.988Z,19.87
2023-02-11T18:47:06.856Z,21.30
2023-02-11T18:49:36.260Z,20.37
2023-02-11T18:52:04.484Z,19.50
2023-02-11T18:54:32.441Z,20.43
2023-02-11T18:57:00.320Z,21.13
2023-02-11T18:59:27.818Z,21.70
2023-02-11T19:01:55.467Z,21.20
2023-02-11T19:04:23.433Z,21.97
2023-02-11T19:06:51.321Z,21.10
2023-02-11T19:09:19.687Z,20.97
2023-02-11T19:11:47.460Z,21.10
2023-02-11T19:14:15.954Z,20.97
2023-02-11T19:16:46.906Z,20.40
2023-02-11T19:19:14.789Z,18.83
2023-02-11T19:21:43.676Z,18.33
2023-02-11T19:24:11.402Z,18.07
2023-02-11T19:26:38.604Z,20.23
2023-02-11T19:29:06.339Z,19.93
2023-02-11T19:31:34.060Z,19.80
2023-02-11T19:34:01.768Z,19.93
2023-02-11T19:36:29.547Z,21.43
2023-02-11T19:38:59.351Z,21.27
2023-02-11T19:41:27.307Z,20.53
2023-02-11T19:43:56.797Z,20.43
2023-02-11T19:46:25.466Z,21.77
2023-02-11T19:48:53.723Z,21.30
2023-02-11T19:51:21.882Z,22.13
2023-02-11T19:53:51.541Z,22.90
2023-02-11T19:56:20.889Z,22.33
2023-02-11T19:58:48.734Z,22.93
2023-02-11T20:01:20.754Z,22.63
2023-02-11T20:03:52.654Z,22.10
2023-02-11T20:06:23.566Z,22.53
2023-02-11T20:08:58.576Z,22.73
2023-02-11T20:11:26.965Z,21.70
2023-02-11T20:13:55.524Z,23.17
2023-02-11T20:16:36.849Z,23.00
2023-02-11T20:19:16.916Z,22.00
2023-02-11T20:21:46.912Z,21.17
2023-02-11T20:24:16.292Z,23.57
2023-02-11T20:26:45.317Z,22.70
2023-02-11T20:29:13.379Z,22.03
2023-02-11T20:31:41.717Z,22.73
2023-02-11T20:34:10.612Z,24.10
2023-02-11T20:36:39.331Z,24.40
2023-02-11T20:39:06.876Z,26.63
2023-02-11T20:41:35.496Z,29.27
2023-02-11T20:44:04.820Z,27.67
2023-02-11T20:46:33.165Z,24.07
2023-02-11T20:49:01.031Z,23.90
2023-02-11T20:51:29.784Z,21.67
2023-02-11T20:53:57.550Z,23.13
2023-02-11T20:56:27.549Z,22.67
2023-02-11T20:58:55.923Z,27.77
2023-02-11T21:01:25.483Z,25.93
2023-02-11T21:03:57.980Z,26.70
2023-02-11T21:06:27.121Z,26.70
2023-02-11T21:08:54.987Z,24.43
2023-02-11T21:11:22.573Z,24.97
2023-02-11T21:13:51.143Z,22.13
2023-02-11T21:16:20.643Z,22.97
2023-02-11T21:18:49.512Z,22.67
2023-02-11T21:21:18.220Z,23.73
2023-02-11T21:23:45.640Z,27.03
2023-02-11T21:26:13.734Z,25.33
2023-02-11T21:28:41.869Z,24.47
2023-02-11T21:31:10.238Z,27.37
2023-02-11T21:33:38.075Z,28.37
2023-02-11T21:36:08.078Z,28.10
2023-02-11T21:38:36.031Z,24.93
2023-02-11T21:41:07.090Z,25.63
2023-02-11T21:43:38.995Z,24.57
2023-02-11T21:46:10.616Z,25.23
2023-02-11T21:48:38.973Z,23.70
2023-02-11T21:51:22.506Z,23.73
2023-02-11T21:53:54.513Z,23.93
2023-02-11T21:56:22.219Z,24.30
2023-02-11T21:58:53.698Z,27.57
2023-02-11T22:01:24.197Z,31.57
2023-02-11T22:03:52.341Z,30.87
2023-02-11T22:06:47.423Z,27.53
2023-02-11T22:09:15.106Z,27.53
2023-02-11T22:11:42.754Z,26.07
2023-02-11T22:14:10.737Z,31.20
2023-02-11T22:16:38.803Z,32.87
2023-02-11T22:19:07.649Z,32.43
2023-02-11T22:21:38.511Z,32.73
2023-02-11T22:24:07.289Z,30.33
2023-02-11T22:26:34.964Z,29.40
2023-02-11T22:29:03.081Z,27.67
2023-02-11T22:31:32.232Z,28.13
2023-02-11T22:34:00.330Z,25.43
2023-02-11T22:36:33.595Z,26.53
2023-02-11T22:39:02.235Z,25.73
2023-02-11T22:41:29.416Z,26.70
2023-02-11T22:43:57.878Z,26.40
2023-02-11T22:46:26.116Z,25.73
2023-02-11T22:48:54.508Z,28.07
2023-02-11T22:51:25.773Z,26.53
2023-02-11T22:53:58.226Z,28.07
2023-02-11T22:56:26.517Z,33.90
2023-02-11T22:58:56.577Z,31.40
2023-02-11T23:01:24.234Z,30.13
2023-02-11T23:03:52.271Z,28.60
2023-02-11T23:06:19.420Z,33.07
2023-02-11T23:08:46.582Z,33.43
2023-02-11T23:11:32.006Z,29.37
2023-02-11T23:13:59.896Z,29.30
2023-02-11T23:16:31.919Z,30.47
2023-02-11T23:19:01.057Z,29.70
2023-02-11T23:21:30.553Z,29.07
2023-02-11T23:24:03.829Z,29.10
2023-02-11T23:26:32.118Z,28.97
2023-02-11T23:29:00.568Z,27.37
2023-02-11T23:31:35.542Z,27.57
2023-02-11T23:34:09.424Z,29.50
2023-02-11T23:36:37.705Z,27.10
2023-02-11T23:39:05.360Z,29.67
2023-02-11T23:41:33.536Z,27.70
2023-02-11T23:44:01.221Z,26.73
2023-02-11T23:46:30.365Z,28.83
2023-02-11T23:48:57.684Z,28.90
2023-02-11T23:51:25.830Z,27.67
2023-02-11T23:53:52.898Z,26.83
2023-02-11T23:56:25.381Z,26.63
2023-02-11T23:58:53.686Z,27.10
